Bookmark and Share
Track history (hours):
 

MOL Springbok

Last reported at 2014-Apr-16 02:33 UTC. Time now 2014-Apr-21 07:37 UTC.
Position N 01°12' E 103°52'.

Length 184 m; beam 25.3 m; draft 9.9 m.

Type: Cargo ship. MMSI: 636091192.

NotesDate/timePositionNaut miles runAvg speedWind from/ knotsBaromVisibWave heightAir tempDewpointWater temp
2014-Apr-16 02:33N 01°12' E 103°52'8 8.3
2014-Apr-16 01:33N 01°17' E 103°45'0 0.0
2014-Apr-16 00:31N 01°17' E 103°45'0 0.0
2014-Apr-15 23:32N 01°17' E 103°45'0 0.0
2014-Apr-15 22:32N 01°17' E 103°45'0 0.0
2014-Apr-15 21:26N 01°17' E 103°45'0 0.0
2014-Apr-15 20:29N 01°17' E 103°45'0 0.0
2014-Apr-15 19:31N 01°17' E 103°45'0 0.0
2014-Apr-15 18:31N 01°17' E 103°45'0 0.0
2014-Apr-15 17:31N 01°17' E 103°45'0 0.0
2014-Apr-15 16:31N 01°17' E 103°45'0 0.0
2014-Apr-15 15:29N 01°17' E 103°45'0 0.0
2014-Apr-15 14:25N 01°17' E 103°45'0 0.0
2014-Apr-15 11:32N 01°17' E 103°45'0 0.0
2014-Apr-15 10:32N 01°17' E 103°45'0 0.0
2014-Apr-15 09:32N 01°17' E 103°45'0 0.0
2014-Apr-15 08:32N 01°17' E 103°45'0 0.0
2014-Apr-15 07:32N 01°17' E 103°45'0 0.0
2014-Apr-15 05:32N 01°17' E 103°45'0 0.0
2014-Apr-15 03:32N 01°17' E 103°45'1 0.6
2014-Apr-15 02:34N 01°17' E 103°45'7 6.8
2014-Apr-15 01:34N 01°12' E 103°50'  
2014-Apr-06 05:33N 22°19' E 114°07'1 0.4
2014-Apr-06 04:15N 22°20' E 114°07'0 0.0
2014-Apr-06 03:33N 22°20' E 114°07'  

Dump ship's entire track history

sailing weather and tide predictions

MOL Springbok — A8KM5 — position and weather